Cerro Gordo, North Carolina
Current Conditions -  °F | °C
As of 10:35 PM on Friday 31 Oct 2014 (Local Time) from KCPC Reporting Station
Clear Clear  
Wind Chill: 48°   Ceiling: Unl
Heat Index: 48°   Visibility: 10mi
Dew Point: 46°   Wind: 0mph
Humidity: 91%   Direction: NA
Pressure: 29.78"   Gusts: NA
Location:  34.32°N, 78.93°W
Report Text: KCPC 010235Z AUTO 00000KT 10SM CLR 09/08 A2978 RMK AO2 T00910077
Loading
Personal Weather Stations






























Interactive Weather Map
Tropical Storm Tracking
New forecast layout! Learn more

10-Day Weather Forecast

Advertisements
Track Severe Weather on mobile